createdAt,value
2023-05-21T00:00:17.208Z,101107.72
2023-05-21T00:02:44.361Z,101106.84
2023-05-21T00:05:14.468Z,101102.47
2023-05-21T00:07:42.183Z,101101.59
2023-05-21T00:10:10.168Z,101105.69
2023-05-21T00:12:37.429Z,101103.13
2023-05-21T00:15:05.089Z,101109.84
2023-05-21T00:17:32.669Z,101111.88
2023-05-21T00:20:00.296Z,101102.66
2023-05-21T00:22:27.442Z,101104.41
2023-05-21T00:24:54.537Z,101105.88
2023-05-21T00:27:21.604Z,101100.38
2023-05-21T00:29:48.675Z,101109.34
2023-05-21T00:32:15.819Z,101105.97
2023-05-21T00:34:42.880Z,101116.97
2023-05-21T00:37:10.099Z,101111.66
2023-05-21T00:39:37.172Z,101112.72
2023-05-21T00:42:04.540Z,101121.34
2023-05-21T00:44:34.409Z,101117.47
2023-05-21T00:47:02.919Z,101113.03
2023-05-21T00:49:31.554Z,101117.41
2023-05-21T00:52:01.595Z,101125.59
2023-05-21T00:54:29.012Z,101124.72
2023-05-21T00:56:56.820Z,101124.34
2023-05-21T00:59:24.585Z,101127.25
2023-05-21T01:01:56.418Z,101128.84
2023-05-21T01:04:26.370Z,101119.66
2023-05-21T01:06:53.641Z,101122.59
2023-05-21T01:09:21.305Z,101121.44
2023-05-21T01:11:51.324Z,101116.03
2023-05-21T01:14:19.822Z,101115.09
2023-05-21T01:16:49.714Z,101122.66
2023-05-21T01:19:22.979Z,101124.56
2023-05-21T01:21:53.630Z,101117.09
2023-05-21T01:24:20.717Z,101120.09
2023-05-21T01:26:48.230Z,101115.13
2023-05-21T01:29:15.433Z,101111.66
2023-05-21T01:32:04.187Z,101120.41
2023-05-21T01:34:48.236Z,101121.31
2023-05-21T01:37:27.152Z,101119.47
2023-05-21T01:40:08.979Z,101119.28
2023-05-21T01:42:39.037Z,101116.63
2023-05-21T01:45:08.083Z,101120.06
2023-05-21T01:47:37.641Z,101112.03
2023-05-21T01:50:06.944Z,101114.63
2023-05-21T01:52:33.994Z,101106.06
2023-05-21T01:55:01.075Z,101113.59
2023-05-21T01:57:28.137Z,101116.28
2023-05-21T01:59:57.788Z,101112.72
2023-05-21T02:02:24.912Z,101107.31
2023-05-21T02:04:52.008Z,101106.88
2023-05-21T02:07:19.958Z,101108.72
2023-05-21T02:09:47.010Z,101111.59
2023-05-21T02:12:14.085Z,101115.41
2023-05-21T02:14:41.720Z,101101.47
2023-05-21T02:17:08.745Z,101098.22
2023-05-21T02:19:35.911Z,101106.84
2023-05-21T02:22:02.976Z,101089.41
2023-05-21T02:24:30.022Z,101102.88
2023-05-21T02:26:58.547Z,101096.72
2023-05-21T02:29:25.665Z,101091.28
2023-05-21T02:31:52.793Z,101094.88
2023-05-21T02:34:20.842Z,101091.22
2023-05-21T02:36:48.586Z,101098.19
2023-05-21T02:39:15.719Z,101089.22
2023-05-21T02:41:42.741Z,101097.19
2023-05-21T02:44:09.893Z,101098.47
2023-05-21T02:46:36.882Z,101096.72
2023-05-21T02:49:03.929Z,101095.16
2023-05-21T02:51:31.579Z,101081.75
2023-05-21T02:53:58.619Z,101099.34
2023-05-21T02:56:26.235Z,101102.97
2023-05-21T02:58:53.516Z,101098.88
2023-05-21T03:01:20.671Z,101104.09
2023-05-21T03:03:47.783Z,101097.84
2023-05-21T03:06:16.428Z,101096.22
2023-05-21T03:08:43.516Z,101097.00
2023-05-21T03:11:10.693Z,101098.44
2023-05-21T03:13:37.741Z,101095.78
2023-05-21T03:16:05.582Z,101095.78
2023-05-21T03:18:32.636Z,101090.41
2023-05-21T03:20:59.746Z,101092.59
2023-05-21T03:23:27.095Z,101083.38
2023-05-21T03:25:54.234Z,101094.03
2023-05-21T03:28:21.317Z,101081.31
2023-05-21T03:30:51.074Z,101077.63
2023-05-21T03:33:18.565Z,101086.47
2023-05-21T03:35:45.687Z,101089.75
2023-05-21T03:38:12.759Z,101089.59
2023-05-21T03:40:39.835Z,101088.09
2023-05-21T03:43:07.006Z,101088.75
2023-05-21T03:45:34.540Z,101080.75
2023-05-21T03:48:02.184Z,101069.97
2023-05-21T03:50:29.265Z,101077.63
2023-05-21T03:52:56.364Z,101079.09
2023-05-21T03:55:23.401Z,101080.31
2023-05-21T03:57:50.465Z,101076.38
2023-05-21T04:00:17.940Z,101076.81
2023-05-21T04:02:45.088Z,101084.41
2023-05-21T04:05:12.206Z,101078.06
2023-05-21T04:07:39.814Z,101082.34
2023-05-21T04:10:07.567Z,101090.69
2023-05-21T04:12:34.694Z,101084.06
2023-05-21T04:15:02.715Z,101080.78
2023-05-21T04:17:29.839Z,101089.50
2023-05-21T04:19:56.938Z,101082.31
2023-05-21T04:22:26.570Z,101086.69
2023-05-21T04:24:54.698Z,101074.97
2023-05-21T04:27:24.892Z,101082.06
2023-05-21T04:29:51.996Z,101079.78
2023-05-21T04:32:19.067Z,101065.91
2023-05-21T04:34:46.232Z,101061.06
2023-05-21T04:37:13.857Z,101060.78
2023-05-21T04:39:42.483Z,101055.13
2023-05-21T04:42:11.154Z,101057.13
2023-05-21T04:44:40.461Z,101057.22
2023-05-21T04:47:08.019Z,101048.97
2023-05-21T04:49:35.283Z,101043.97
2023-05-21T04:52:02.766Z,101050.44
2023-05-21T04:54:29.967Z,101032.59
2023-05-21T04:56:58.165Z,101043.47
2023-05-21T04:59:25.229Z,101044.47
2023-05-21T05:01:52.782Z,101042.75
2023-05-21T05:04:19.851Z,101044.38
2023-05-21T05:06:47.355Z,101038.38
2023-05-21T05:09:14.440Z,101035.72
2023-05-21T05:11:41.502Z,101051.59
2023-05-21T05:14:08.588Z,101049.91
2023-05-21T05:16:36.434Z,101045.00
2023-05-21T05:19:03.596Z,101046.31
2023-05-21T05:21:30.754Z,101047.13
2023-05-21T05:23:57.928Z,101048.00
2023-05-21T05:26:26.269Z,101043.94
2023-05-21T05:28:53.396Z,101040.28
2023-05-21T05:31:20.545Z,101033.75
2023-05-21T05:33:48.571Z,101041.84
2023-05-21T05:36:15.810Z,101039.66
2023-05-21T05:38:42.910Z,101044.34
2023-05-21T05:41:09.974Z,101032.13
2023-05-21T05:43:37.325Z,101034.63
2023-05-21T05:46:04.553Z,101026.09
2023-05-21T05:48:31.774Z,101028.91
2023-05-21T05:50:58.908Z,101030.13
2023-05-21T05:53:25.952Z,101042.44
2023-05-21T05:55:53.024Z,101034.69
2023-05-21T05:58:20.224Z,101034.63
2023-05-21T06:00:47.302Z,101032.66
2023-05-21T06:03:14.588Z,101026.88
2023-05-21T06:05:42.032Z,101027.66
2023-05-21T06:08:09.167Z,101019.72
2023-05-21T06:10:36.253Z,101019.53
2023-05-21T06:13:03.364Z,101023.25
2023-05-21T06:15:30.852Z,101023.97
2023-05-21T06:17:57.907Z,101022.03
2023-05-21T06:20:25.007Z,101028.47
2023-05-21T06:22:52.046Z,101023.19
2023-05-21T06:25:19.187Z,101023.47
2023-05-21T06:27:46.531Z,101027.00
2023-05-21T06:30:13.607Z,101017.56
2023-05-21T06:32:40.829Z,101024.22
2023-05-21T06:35:08.602Z,101024.56
2023-05-21T06:37:35.688Z,101013.28
2023-05-21T06:40:03.019Z,101015.00
2023-05-21T06:42:30.096Z,101016.88
2023-05-21T06:44:57.145Z,101020.47
2023-05-21T06:47:24.261Z,101015.06
2023-05-21T06:49:51.338Z,101011.78
2023-05-21T06:52:18.456Z,101006.75
2023-05-21T06:54:45.850Z,101016.06
2023-05-21T06:57:15.267Z,101007.44
2023-05-21T06:59:42.532Z,101003.03
2023-05-21T07:02:09.647Z,101003.34
2023-05-21T07:04:36.894Z,101002.91
2023-05-21T07:07:04.808Z,101002.63
2023-05-21T07:09:32.218Z,100991.47
2023-05-21T07:11:59.368Z,100991.16
2023-05-21T07:14:26.752Z,100992.63
2023-05-21T07:16:53.886Z,100998.69
2023-05-21T07:19:21.350Z,100994.94
2023-05-21T07:21:49.456Z,100989.03
2023-05-21T07:24:16.572Z,100994.78
2023-05-21T07:26:43.631Z,100985.03
2023-05-21T07:29:10.846Z,100990.53
2023-05-21T07:31:38.109Z,100988.44
2023-05-21T07:34:05.336Z,100989.88
2023-05-21T07:36:33.641Z,100989.72
2023-05-21T07:39:01.052Z,100992.25
2023-05-21T07:41:28.217Z,100990.84
2023-05-21T07:43:55.612Z,100982.97
2023-05-21T07:46:22.752Z,100983.38
2023-05-21T07:48:50.198Z,100975.97
2023-05-21T07:51:17.498Z,100974.50
2023-05-21T07:53:44.611Z,100983.16
2023-05-21T07:56:11.724Z,100987.56
2023-05-21T07:58:39.621Z,100987.06
2023-05-21T08:01:07.015Z,100969.75
2023-05-21T08:03:34.206Z,100965.78
2023-05-21T08:06:01.846Z,100970.13
2023-05-21T08:08:28.997Z,100973.53
2023-05-21T08:10:56.342Z,100971.88
2023-05-21T08:13:23.359Z,100971.75
2023-05-21T08:15:52.836Z,100966.38
2023-05-21T08:18:20.695Z,100964.22
2023-05-21T08:20:48.536Z,100961.69
2023-05-21T08:23:15.682Z,100969.13
2023-05-21T08:25:42.870Z,100958.09
2023-05-21T08:28:09.973Z,100956.16
2023-05-21T08:30:37.363Z,100954.72
2023-05-21T08:33:04.545Z,100961.13
2023-05-21T08:35:31.787Z,100960.28
2023-05-21T08:37:59.587Z,100938.91
2023-05-21T08:40:26.723Z,100943.41
2023-05-21T08:42:54.066Z,100951.53
2023-05-21T08:45:22.976Z,100943.56
2023-05-21T08:47:59.797Z,100962.38
2023-05-21T08:50:28.692Z,100952.50
2023-05-21T08:52:56.062Z,100953.84
2023-05-21T08:55:23.890Z,100951.22
2023-05-21T08:57:53.744Z,100961.03
2023-05-21T09:00:21.360Z,100957.22
2023-05-21T09:02:48.466Z,100956.41
2023-05-21T09:05:16.583Z,100955.63
2023-05-21T09:07:55.425Z,100959.22
2023-05-21T09:10:29.561Z,100958.47
2023-05-21T09:12:56.685Z,100960.66
2023-05-21T09:15:24.430Z,100961.66
2023-05-21T09:17:51.571Z,100954.59
2023-05-21T09:20:24.198Z,100957.78
2023-05-21T09:22:51.654Z,100951.97
2023-05-21T09:25:24.098Z,100947.03
2023-05-21T09:27:51.453Z,100940.34
2023-05-21T09:30:21.849Z,100949.66
2023-05-21T09:32:59.980Z,100940.44
2023-05-21T09:35:27.747Z,100941.16
2023-05-21T09:37:57.510Z,100929.59
2023-05-21T09:40:25.212Z,100928.84
2023-05-21T09:42:54.921Z,100935.13
2023-05-21T09:45:28.711Z,100944.16
2023-05-21T09:47:56.560Z,100931.47
2023-05-21T09:50:31.581Z,100947.69
2023-05-21T09:52:58.665Z,100947.50
2023-05-21T09:55:27.087Z,100939.03
2023-05-21T09:57:54.290Z,100949.22
2023-05-21T10:00:27.633Z,100949.63
2023-05-21T10:02:56.953Z,100944.72
2023-05-21T10:05:31.219Z,100928.78
2023-05-21T10:08:03.293Z,100932.56
2023-05-21T10:10:32.271Z,100931.53
2023-05-21T10:13:08.764Z,100933.28
2023-05-21T10:15:42.472Z,100932.00
2023-05-21T10:18:12.489Z,100927.31
2023-05-21T10:20:40.728Z,100922.81
2023-05-21T10:23:09.026Z,100920.78
2023-05-21T10:25:37.081Z,100914.06
2023-05-21T10:28:04.826Z,100912.25
2023-05-21T10:30:32.297Z,100914.34
2023-05-21T10:33:01.909Z,100918.34
2023-05-21T10:35:29.844Z,100917.72
2023-05-21T10:37:59.134Z,100918.75
2023-05-21T10:40:26.297Z,100918.09
2023-05-21T10:43:31.261Z,100917.44
2023-05-21T10:46:32.203Z,100914.63
2023-05-21T10:49:11.209Z,100904.94
2023-05-21T10:52:00.403Z,100917.72
2023-05-21T10:55:12.045Z,100914.47
2023-05-21T10:57:57.172Z,100901.47
2023-05-21T11:00:26.619Z,100894.25
2023-05-21T11:02:54.432Z,100894.16
2023-05-21T11:05:51.692Z,100907.44
2023-05-21T11:08:35.837Z,100893.88
2023-05-21T11:11:04.749Z,100892.09
2023-05-21T11:13:51.991Z,100898.78
2023-05-21T11:16:21.772Z,100900.00
2023-05-21T11:18:57.702Z,100900.44
2023-05-21T11:21:28.564Z,100884.41
2023-05-21T11:24:06.665Z,100899.63
2023-05-21T11:26:49.038Z,100880.34
2023-05-21T11:29:17.234Z,100888.59
2023-05-21T11:31:58.890Z,100884.41
2023-05-21T11:34:28.932Z,100901.81
2023-05-21T11:37:23.327Z,100879.22
2023-05-21T11:39:51.785Z,100886.06
2023-05-21T11:42:35.157Z,100886.50
2023-05-21T11:45:04.208Z,100875.44
2023-05-21T11:47:32.675Z,100887.88
2023-05-21T11:50:02.795Z,100873.72
2023-05-21T11:52:31.875Z,100875.91
2023-05-21T11:55:00.058Z,100874.59
2023-05-21T11:57:32.252Z,100881.06
2023-05-21T12:00:01.857Z,100872.91
2023-05-21T12:02:33.148Z,100871.69
2023-05-21T12:05:00.716Z,100868.41
2023-05-21T12:07:32.001Z,100880.50
2023-05-21T12:10:00.339Z,100873.97
2023-05-21T12:12:33.057Z,100875.59
2023-05-21T12:15:10.414Z,100881.84
2023-05-21T12:17:37.715Z,100869.25
2023-05-21T12:20:08.475Z,100879.44
2023-05-21T12:22:35.563Z,100871.16
2023-05-21T12:25:04.122Z,100864.38
2023-05-21T12:27:32.899Z,100857.56
2023-05-21T12:30:01.219Z,100860.34
2023-05-21T12:32:29.327Z,100865.34
2023-05-21T12:34:56.745Z,100857.38
2023-05-21T12:37:26.774Z,100870.59
2023-05-21T12:39:56.129Z,100856.13
2023-05-21T12:42:32.481Z,100848.66
2023-05-21T12:44:59.663Z,100856.25
2023-05-21T12:47:28.145Z,100851.69
2023-05-21T12:50:00.747Z,100854.44
2023-05-21T12:52:29.180Z,100842.75
2023-05-21T12:54:57.725Z,100838.63
2023-05-21T12:57:43.975Z,100848.97
2023-05-21T13:00:11.938Z,100841.19
2023-05-21T13:02:45.471Z,100847.03
2023-05-21T13:05:17.807Z,100832.31
2023-05-21T13:07:47.645Z,100833.53
2023-05-21T13:10:18.954Z,100841.78
2023-05-21T13:12:46.497Z,100838.53
2023-05-21T13:15:15.205Z,100835.63
2023-05-21T13:17:42.344Z,100834.72
2023-05-21T13:20:21.817Z,100830.28
2023-05-21T13:22:52.187Z,100842.00
2023-05-21T13:25:25.347Z,100833.22
2023-05-21T13:27:53.749Z,100823.91
2023-05-21T13:30:22.128Z,100829.16
2023-05-21T13:32:49.303Z,100817.31
2023-05-21T13:35:17.298Z,100821.47
2023-05-21T13:37:45.134Z,100834.00
2023-05-21T13:40:15.822Z,100827.66
2023-05-21T13:42:45.931Z,100820.75
2023-05-21T13:45:16.041Z,100828.81
2023-05-21T13:47:44.433Z,100817.28
2023-05-21T13:50:12.379Z,100812.78
2023-05-21T13:52:39.509Z,100823.53
2023-05-21T13:55:07.129Z,100815.72
2023-05-21T13:57:34.288Z,100808.34
2023-05-21T14:00:01.610Z,100814.25
2023-05-21T14:02:29.305Z,100814.78
2023-05-21T14:04:56.529Z,100808.94
2023-05-21T14:07:23.602Z,100815.13
2023-05-21T14:09:50.636Z,100816.31
2023-05-21T14:12:17.767Z,100810.56
2023-05-21T14:14:45.069Z,100805.13
2023-05-21T14:17:12.153Z,100816.44
2023-05-21T14:19:39.118Z,100810.31
2023-05-21T14:22:06.182Z,100805.13
2023-05-21T14:24:33.299Z,100809.59
2023-05-21T14:27:00.554Z,100817.19
2023-05-21T14:29:27.655Z,100797.47
2023-05-21T14:31:54.754Z,100811.56
2023-05-21T14:34:21.860Z,100812.78
2023-05-21T14:36:48.875Z,100808.50
2023-05-21T14:39:16.115Z,100804.91
2023-05-21T14:41:43.248Z,100798.84
2023-05-21T14:44:10.498Z,100798.53
2023-05-21T14:46:38.614Z,100796.75
2023-05-21T14:49:05.645Z,100789.84
2023-05-21T14:51:32.675Z,100794.44
2023-05-21T14:53:59.735Z,100795.59
2023-05-21T14:56:28.212Z,100788.25
2023-05-21T14:58:55.689Z,100784.44
2023-05-21T15:01:23.185Z,100788.69
2023-05-21T15:03:50.555Z,100787.75
2023-05-21T15:06:17.850Z,100779.72
2023-05-21T15:08:44.915Z,100788.38
2023-05-21T15:11:11.994Z,100781.25
2023-05-21T15:13:39.674Z,100777.78
2023-05-21T15:16:06.839Z,100782.75
2023-05-21T15:18:34.086Z,100781.03
2023-05-21T15:21:01.292Z,100782.78
2023-05-21T15:23:28.529Z,100774.63
2023-05-21T15:25:56.041Z,100778.59
2023-05-21T15:28:23.186Z,100773.88
2023-05-21T15:30:50.461Z,100775.59
2023-05-21T15:33:17.740Z,100779.03
2023-05-21T15:35:45.226Z,100782.88
2023-05-21T15:38:12.537Z,100788.75
2023-05-21T15:40:43.152Z,100774.63
2023-05-21T15:43:10.264Z,100774.84
2023-05-21T15:45:38.537Z,100774.84
2023-05-21T15:48:06.719Z,100769.38
2023-05-21T15:50:35.712Z,100779.31
2023-05-21T15:53:04.843Z,100768.69
2023-05-21T15:55:35.392Z,100775.03
2023-05-21T15:58:03.969Z,100770.38
2023-05-21T16:00:31.058Z,100775.13
2023-05-21T16:02:58.216Z,100783.28
2023-05-21T16:05:26.783Z,100774.47
2023-05-21T16:07:53.800Z,100776.16
2023-05-21T16:10:22.817Z,100776.09
2023-05-21T16:12:49.856Z,100781.50
2023-05-21T16:15:17.054Z,100772.53
2023-05-21T16:17:44.135Z,100774.72
2023-05-21T16:20:12.096Z,100772.16
2023-05-21T16:22:40.266Z,100770.13
2023-05-21T16:25:08.381Z,100765.44
2023-05-21T16:27:36.334Z,100768.97
2023-05-21T16:30:04.310Z,100765.78
2023-05-21T16:32:31.511Z,100774.72
2023-05-21T16:34:59.062Z,100775.75
2023-05-21T16:37:26.954Z,100761.53
2023-05-21T16:39:53.995Z,100765.88
2023-05-21T16:42:21.070Z,100775.66
2023-05-21T16:44:48.093Z,100765.00
2023-05-21T16:47:15.277Z,100770.50
2023-05-21T16:49:42.354Z,100757.97
2023-05-21T16:52:09.482Z,100765.22
2023-05-21T16:54:36.485Z,100771.69
2023-05-21T16:57:03.583Z,100763.75
2023-05-21T16:59:30.594Z,100767.28
2023-05-21T17:01:57.713Z,100762.81
2023-05-21T17:04:24.835Z,100769.13
2023-05-21T17:06:51.911Z,100769.22
2023-05-21T17:09:18.998Z,100779.88
2023-05-21T17:11:46.100Z,100781.72
2023-05-21T17:14:15.386Z,100777.38
2023-05-21T17:16:50.739Z,100771.97
2023-05-21T17:19:17.862Z,100769.22
2023-05-21T17:21:46.140Z,100772.97
2023-05-21T17:24:13.233Z,100769.16
2023-05-21T17:26:40.404Z,100780.16
2023-05-21T17:29:07.513Z,100784.63
2023-05-21T17:31:34.666Z,100775.72
2023-05-21T17:34:01.763Z,100773.03
2023-05-21T17:36:28.874Z,100773.28
2023-05-21T17:38:55.954Z,100772.31
2023-05-21T17:41:25.354Z,100771.56
2023-05-21T17:43:52.425Z,100766.16
2023-05-21T17:46:19.533Z,100769.75
2023-05-21T17:48:46.614Z,100767.97
2023-05-21T17:51:13.855Z,100772.50
2023-05-21T17:53:41.313Z,100759.09
2023-05-21T17:56:10.444Z,100759.13
2023-05-21T17:58:37.605Z,100752.97
2023-05-21T18:01:04.800Z,100755.59
2023-05-21T18:03:32.131Z,100742.19
2023-05-21T18:05:59.283Z,100755.66
2023-05-21T18:08:27.015Z,100758.44
2023-05-21T18:10:54.099Z,100759.38
2023-05-21T18:13:21.179Z,100763.81
2023-05-21T18:15:48.360Z,100762.06
2023-05-21T18:18:20.631Z,100769.25
2023-05-21T18:20:48.002Z,100756.72
2023-05-21T18:23:15.130Z,100765.75
2023-05-21T18:25:42.241Z,100764.81
2023-05-21T18:28:10.154Z,100763.91
2023-05-21T18:30:37.383Z,100772.00
2023-05-21T18:33:04.756Z,100780.09
2023-05-21T18:35:31.867Z,100772.06
2023-05-21T18:37:58.939Z,100773.88
2023-05-21T18:40:30.429Z,100774.75
2023-05-21T18:42:57.771Z,100776.59
2023-05-21T18:45:24.839Z,100780.09
2023-05-21T18:47:52.210Z,100775.69
2023-05-21T18:50:19.567Z,100783.72
2023-05-21T18:52:46.952Z,100786.41
2023-05-21T18:55:14.823Z,100784.63
2023-05-21T18:57:41.963Z,100782.84
2023-05-21T19:00:09.880Z,100787.31
2023-05-21T19:02:37.422Z,100780.16
2023-05-21T19:05:05.100Z,100787.31
2023-05-21T19:07:32.246Z,100786.44
2023-05-21T19:10:03.109Z,100783.75
2023-05-21T19:12:31.502Z,100790.00
2023-05-21T19:14:58.708Z,100787.31
2023-05-21T19:17:25.924Z,100786.44
2023-05-21T19:19:56.192Z,100780.19
2023-05-21T19:22:27.667Z,100784.66
2023-05-21T19:24:54.956Z,100784.66
2023-05-21T19:27:22.471Z,100788.22
2023-05-21T19:29:49.745Z,100785.53
2023-05-21T19:32:17.109Z,100802.50
2023-05-21T19:34:44.262Z,100793.56
2023-05-21T19:37:11.507Z,100799.84
2023-05-21T19:39:43.508Z,100805.19
2023-05-21T19:42:11.058Z,100806.00
2023-05-21T19:44:40.931Z,100797.06
2023-05-21T19:47:08.523Z,100797.94
2023-05-21T19:49:35.695Z,100797.03
2023-05-21T19:52:02.828Z,100796.19
2023-05-21T19:54:29.980Z,100797.94
2023-05-21T19:56:57.751Z,100796.19
2023-05-21T19:59:24.842Z,100786.38
2023-05-21T20:01:51.893Z,100784.53
2023-05-21T20:04:18.958Z,100781.78
2023-05-21T20:06:46.130Z,100785.38
2023-05-21T20:09:13.835Z,100790.66
2023-05-21T20:11:42.334Z,100778.09
2023-05-21T20:14:09.749Z,100783.41
2023-05-21T20:16:37.018Z,100787.91
2023-05-21T20:19:04.257Z,100786.13
2023-05-21T20:21:31.927Z,100790.53
2023-05-21T20:23:59.152Z,100790.56
2023-05-21T20:26:26.434Z,100787.88
2023-05-21T20:28:54.040Z,100792.31
2023-05-21T20:31:21.767Z,100792.31
2023-05-21T20:33:50.767Z,100779.81
2023-05-21T20:36:18.562Z,100791.41
2023-05-21T20:38:45.703Z,100797.59
2023-05-21T20:41:13.516Z,100788.53
2023-05-21T20:43:40.741Z,100791.31
2023-05-21T20:46:07.969Z,100795.69
2023-05-21T20:48:35.540Z,100794.75
2023-05-21T20:51:04.717Z,100796.53
2023-05-21T20:53:32.169Z,100797.34
2023-05-21T20:56:01.732Z,100798.13
2023-05-21T20:58:28.939Z,100798.16
2023-05-21T21:00:56.024Z,100791.88
2023-05-21T21:03:23.310Z,100791.84
2023-05-21T21:05:50.737Z,100793.59
2023-05-21T21:08:17.812Z,100783.78
2023-05-21T21:10:47.055Z,100790.03
2023-05-21T21:13:14.885Z,100783.66
2023-05-21T21:15:43.770Z,100793.53
2023-05-21T21:18:12.684Z,100772.03
2023-05-21T21:20:41.496Z,100787.09
2023-05-21T21:23:08.961Z,100772.75
2023-05-21T21:25:36.537Z,100772.81
2023-05-21T21:28:03.774Z,100773.81
2023-05-21T21:30:31.236Z,100771.16
2023-05-21T21:32:58.592Z,100767.44
2023-05-21T21:35:25.687Z,100764.75
2023-05-21T21:37:52.780Z,100774.34
2023-05-21T21:40:19.881Z,100769.97
2023-05-21T21:42:47.052Z,100772.44
2023-05-21T21:45:14.086Z,100774.19
2023-05-21T21:47:41.274Z,100775.00
2023-05-21T21:50:08.991Z,100778.72
2023-05-21T21:52:40.086Z,100774.09
2023-05-21T21:55:11.221Z,100776.97
2023-05-21T21:57:39.681Z,100777.63
2023-05-21T22:00:11.319Z,100786.41
2023-05-21T22:02:40.256Z,100783.63
2023-05-21T22:05:08.815Z,100780.19
2023-05-21T22:07:38.759Z,100782.84
2023-05-21T22:10:06.777Z,100781.00
2023-05-21T22:12:34.185Z,100762.16
2023-05-21T22:15:05.462Z,100774.44
2023-05-21T22:17:33.111Z,100784.44
2023-05-21T22:20:01.267Z,100784.44
2023-05-21T22:22:28.427Z,100780.72
2023-05-21T22:24:55.833Z,100785.00
2023-05-21T22:27:22.905Z,100787.03
2023-05-21T22:29:50.037Z,100786.94
2023-05-21T22:32:17.307Z,100784.25
2023-05-21T22:34:44.456Z,100782.28
2023-05-21T22:37:12.368Z,100789.38
2023-05-21T22:39:39.514Z,100786.72
2023-05-21T22:42:06.852Z,100791.25
2023-05-21T22:44:33.941Z,100789.34
2023-05-21T22:47:01.446Z,100796.97
2023-05-21T22:49:30.326Z,100787.28
2023-05-21T22:51:58.244Z,100794.34
2023-05-21T22:54:25.331Z,100792.47
2023-05-21T22:56:52.380Z,100790.56
2023-05-21T22:59:19.424Z,100791.09
2023-05-21T23:01:46.578Z,100787.59
2023-05-21T23:04:15.214Z,100781.25
2023-05-21T23:06:42.818Z,100783.13
2023-05-21T23:09:10.036Z,100780.50
2023-05-21T23:11:37.177Z,100781.22
2023-05-21T23:14:04.323Z,100776.75
2023-05-21T23:16:32.285Z,100766.00
2023-05-21T23:18:59.470Z,100767.75
2023-05-21T23:21:26.685Z,100779.13
2023-05-21T23:23:53.730Z,100779.13
2023-05-21T23:26:21.735Z,100769.00
2023-05-21T23:28:48.776Z,100774.56
2023-05-21T23:31:15.905Z,100766.56
2023-05-21T23:33:42.972Z,100771.97
2023-05-21T23:36:10.057Z,100773.69
2023-05-21T23:38:37.083Z,100762.88
2023-05-21T23:41:04.133Z,100771.56
2023-05-21T23:43:31.214Z,100772.31
2023-05-21T23:45:58.305Z,100773.22
2023-05-21T23:48:25.584Z,100760.72
2023-05-21T23:50:52.819Z,100772.28
2023-05-21T23:53:19.894Z,100775.44
2023-05-21T23:55:47.427Z,100771.09
2023-05-21T23:58:14.502Z,100767.50
